createdAt,value
2023-03-07T00:01:36.181Z,95.98
2023-03-07T00:03:39.376Z,95.60
2023-03-07T00:05:42.292Z,95.46
2023-03-07T00:07:44.962Z,95.38
2023-03-07T00:09:48.305Z,95.37
2023-03-07T00:11:51.031Z,95.24
2023-03-07T00:13:54.124Z,94.60
2023-03-07T00:16:12.444Z,94.44
2023-03-07T00:18:15.176Z,94.47
2023-03-07T00:20:17.856Z,94.56
2023-03-07T00:22:20.515Z,94.91
2023-03-07T00:24:23.224Z,94.94
2023-03-07T00:26:27.316Z,94.89
2023-03-07T00:28:30.730Z,94.49
2023-03-07T00:30:33.351Z,94.29
2023-03-07T00:32:36.045Z,94.05
2023-03-07T00:34:38.723Z,93.91
2023-03-07T00:36:41.261Z,94.30
2023-03-07T00:38:45.145Z,93.94
2023-03-07T00:40:47.914Z,93.77
2023-03-07T00:42:50.562Z,94.06
2023-03-07T00:44:53.229Z,94.07
2023-03-07T00:46:56.649Z,94.18
2023-03-07T00:49:00.669Z,94.50
2023-03-07T00:51:05.713Z,94.46
2023-03-07T00:53:08.265Z,94.29
2023-03-07T00:55:11.136Z,94.20
2023-03-07T00:57:14.937Z,94.33
2023-03-07T00:59:17.686Z,94.32
2023-03-07T01:01:23.305Z,94.22
2023-03-07T01:03:26.565Z,93.96
2023-03-07T01:05:29.235Z,93.99
2023-03-07T01:07:31.850Z,93.64
2023-03-07T01:09:34.522Z,93.20
2023-03-07T01:11:38.181Z,93.78
2023-03-07T01:13:41.364Z,93.50
2023-03-07T01:15:44.205Z,93.12
2023-03-07T01:17:46.783Z,93.10
2023-03-07T01:19:49.434Z,93.11
2023-03-07T01:21:51.984Z,93.22
2023-03-07T01:23:55.145Z,92.66
2023-03-07T01:25:57.761Z,92.62
2023-03-07T01:28:00.393Z,92.25
2023-03-07T01:30:04.027Z,92.86
2023-03-07T01:32:07.231Z,92.50
2023-03-07T01:34:09.945Z,91.89
2023-03-07T01:36:21.706Z,92.47
2023-03-07T01:38:24.388Z,91.57
2023-03-07T01:40:27.006Z,91.81
2023-03-07T01:42:32.580Z,92.55
2023-03-07T01:45:17.543Z,92.14
2023-03-07T01:47:20.235Z,92.82
2023-03-07T01:49:38.487Z,92.53
2023-03-07T01:51:44.098Z,92.32
2023-03-07T01:53:48.784Z,92.43
2023-03-07T01:55:51.402Z,92.53
2023-03-07T01:57:56.383Z,92.42
2023-03-07T02:00:01.862Z,92.46
2023-03-07T02:02:14.131Z,92.84
2023-03-07T02:04:24.142Z,92.83
2023-03-07T02:06:28.977Z,93.19
2023-03-07T02:08:34.316Z,93.05
2023-03-07T02:10:38.076Z,93.21
2023-03-07T02:12:41.841Z,92.93
2023-03-07T02:14:47.466Z,93.46
2023-03-07T02:16:50.185Z,92.75
2023-03-07T02:18:52.783Z,93.01
2023-03-07T02:21:06.006Z,92.76
2023-03-07T02:23:13.899Z,93.25
2023-03-07T02:25:25.516Z,92.45
2023-03-07T02:27:31.565Z,92.99
2023-03-07T02:29:34.167Z,93.01
2023-03-07T02:31:36.899Z,92.94
2023-03-07T02:33:39.586Z,93.03
2023-03-07T02:35:42.263Z,93.79
2023-03-07T02:37:48.216Z,93.05
2023-03-07T02:39:51.570Z,93.30
2023-03-07T02:41:56.799Z,93.18
2023-03-07T02:44:00.454Z,92.74
2023-03-07T02:46:03.083Z,92.94
2023-03-07T02:48:05.962Z,93.06
2023-03-07T02:50:09.256Z,92.79
2023-03-07T02:52:11.872Z,92.74
2023-03-07T02:54:14.662Z,92.82
2023-03-07T02:56:17.324Z,92.63
2023-03-07T02:58:19.928Z,92.89
2023-03-07T03:00:22.778Z,92.50
2023-03-07T03:02:25.550Z,92.46
2023-03-07T03:04:28.239Z,92.72
2023-03-07T03:06:30.938Z,92.54
2023-03-07T03:08:33.591Z,93.05
2023-03-07T03:10:36.221Z,92.87
2023-03-07T03:12:38.916Z,92.46
2023-03-07T03:14:41.496Z,92.56
2023-03-07T03:16:44.135Z,92.76
2023-03-07T03:18:46.723Z,92.55
2023-03-07T03:20:49.346Z,92.60
2023-03-07T03:22:53.157Z,92.50
2023-03-07T03:24:55.785Z,92.37
2023-03-07T03:26:58.782Z,92.22
2023-03-07T03:29:02.197Z,92.16
2023-03-07T03:31:10.645Z,92.47
2023-03-07T03:33:13.248Z,91.73
2023-03-07T03:35:16.095Z,91.71
2023-03-07T03:37:18.891Z,91.89
2023-03-07T03:39:21.878Z,92.20
2023-03-07T03:41:25.244Z,92.15
2023-03-07T03:43:28.201Z,92.14
2023-03-07T03:45:30.952Z,92.30
2023-03-07T03:47:33.593Z,92.19
2023-03-07T03:49:36.216Z,92.41
2023-03-07T03:51:38.848Z,91.47
2023-03-07T03:53:41.436Z,91.74
2023-03-07T03:55:44.104Z,91.22
2023-03-07T03:57:46.730Z,91.89
2023-03-07T03:59:49.397Z,91.70
2023-03-07T04:01:52.178Z,91.60
2023-03-07T04:03:56.111Z,91.75
2023-03-07T04:06:02.451Z,91.63
2023-03-07T04:08:05.098Z,91.14
2023-03-07T04:10:08.255Z,91.30
2023-03-07T04:12:10.963Z,90.93
2023-03-07T04:14:13.522Z,91.27
2023-03-07T04:16:17.502Z,91.86
2023-03-07T04:18:21.172Z,90.67
2023-03-07T04:20:23.778Z,90.81
2023-03-07T04:22:26.419Z,90.58
2023-03-07T04:24:29.366Z,90.56
2023-03-07T04:26:32.047Z,90.47
2023-03-07T04:28:45.063Z,89.97
2023-03-07T04:30:49.948Z,90.16
2023-03-07T04:32:52.833Z,90.40
2023-03-07T04:34:55.406Z,90.09
2023-03-07T04:36:58.105Z,89.40
2023-03-07T04:39:00.754Z,88.97
2023-03-07T04:41:03.356Z,88.33
2023-03-07T04:43:06.170Z,88.64
2023-03-07T04:45:09.389Z,87.72
2023-03-07T04:47:12.137Z,87.70
2023-03-07T04:49:14.885Z,86.92
2023-03-07T04:51:17.624Z,87.44
2023-03-07T04:53:20.554Z,86.84
2023-03-07T04:55:23.147Z,86.60
2023-03-07T04:57:25.830Z,86.40
2023-03-07T04:59:28.464Z,86.07
2023-03-07T05:01:31.136Z,85.55
2023-03-07T05:03:35.296Z,85.14
2023-03-07T05:05:38.434Z,84.47
2023-03-07T05:07:41.086Z,84.43
2023-03-07T05:09:43.777Z,83.92
2023-03-07T05:11:46.398Z,84.02
2023-03-07T05:13:49.082Z,84.07
2023-03-07T05:15:53.541Z,83.55
2023-03-07T05:17:56.483Z,82.96
2023-03-07T05:19:59.043Z,82.60
2023-03-07T05:22:02.693Z,83.28
2023-03-07T05:24:05.491Z,83.12
2023-03-07T05:26:08.079Z,81.89
2023-03-07T05:28:10.958Z,82.34
2023-03-07T05:30:14.432Z,83.16
2023-03-07T05:32:17.022Z,82.34
2023-03-07T05:34:19.898Z,81.79
2023-03-07T05:36:22.530Z,82.98
2023-03-07T05:38:25.170Z,82.06
2023-03-07T05:40:27.735Z,81.69
2023-03-07T05:42:30.339Z,80.93
2023-03-07T05:44:34.174Z,80.99
2023-03-07T05:46:36.964Z,81.24
2023-03-07T05:48:39.637Z,80.36
2023-03-07T05:50:42.881Z,80.34
2023-03-07T05:52:45.496Z,81.29
2023-03-07T05:54:49.982Z,81.66
2023-03-07T05:56:53.682Z,81.47
2023-03-07T05:58:56.336Z,81.54
2023-03-07T06:00:58.917Z,81.63
2023-03-07T06:03:03.573Z,81.29
2023-03-07T06:05:06.463Z,81.65
2023-03-07T06:07:09.117Z,81.61
2023-03-07T06:09:11.728Z,81.55
2023-03-07T06:11:14.439Z,81.92
2023-03-07T06:13:20.541Z,81.56
2023-03-07T06:15:24.747Z,82.20
2023-03-07T06:17:27.508Z,82.23
2023-03-07T06:19:30.178Z,82.67
2023-03-07T06:21:32.801Z,82.22
2023-03-07T06:23:36.837Z,82.10
2023-03-07T06:25:39.468Z,81.25
2023-03-07T06:27:42.034Z,81.32
2023-03-07T06:29:44.827Z,81.03
2023-03-07T06:31:47.493Z,81.54
2023-03-07T06:33:51.617Z,80.59
2023-03-07T06:35:54.258Z,79.85
2023-03-07T06:37:56.968Z,80.45
2023-03-07T06:39:59.672Z,80.09
2023-03-07T06:42:02.360Z,78.89
2023-03-07T06:44:05.113Z,79.70
2023-03-07T06:46:08.083Z,80.19
2023-03-07T06:48:10.704Z,78.68
2023-03-07T06:50:13.489Z,78.81
2023-03-07T06:52:16.049Z,79.63
2023-03-07T06:54:18.818Z,79.78
2023-03-07T06:56:21.491Z,80.37
2023-03-07T06:58:24.043Z,79.95
2023-03-07T07:00:26.712Z,80.51
2023-03-07T07:02:29.436Z,81.14
2023-03-07T07:04:33.428Z,81.08
2023-03-07T07:06:36.095Z,82.16
2023-03-07T07:08:38.674Z,82.23
2023-03-07T07:10:41.377Z,81.54
2023-03-07T07:12:44.004Z,81.98
2023-03-07T07:14:47.482Z,82.27
2023-03-07T07:16:50.189Z,82.53
2023-03-07T07:18:52.834Z,81.33
2023-03-07T07:20:56.145Z,81.99
2023-03-07T07:22:58.703Z,81.55
2023-03-07T07:25:01.364Z,80.51
2023-03-07T07:27:04.467Z,80.17
2023-03-07T07:29:07.135Z,81.26
2023-03-07T07:31:10.092Z,80.81
2023-03-07T07:33:12.847Z,81.48
2023-03-07T07:35:15.714Z,81.25
2023-03-07T07:37:18.360Z,80.45
2023-03-07T07:39:21.940Z,80.01
2023-03-07T07:41:24.591Z,80.52
2023-03-07T07:43:27.216Z,80.18
2023-03-07T07:45:29.902Z,79.23
2023-03-07T07:47:32.520Z,79.59
2023-03-07T07:49:35.788Z,80.10
2023-03-07T07:51:41.002Z,79.18
2023-03-07T07:53:43.620Z,78.96
2023-03-07T07:55:46.286Z,78.45
2023-03-07T07:57:48.877Z,78.64
2023-03-07T07:59:51.638Z,77.02
2023-03-07T08:01:55.395Z,77.93
2023-03-07T08:03:58.046Z,77.69
2023-03-07T08:06:03.322Z,77.20
2023-03-07T08:08:06.828Z,76.99
2023-03-07T08:10:10.550Z,77.68
2023-03-07T08:12:13.327Z,78.34
2023-03-07T08:14:15.961Z,78.66
2023-03-07T08:16:20.773Z,78.39
2023-03-07T08:18:23.499Z,77.60
2023-03-07T08:20:26.135Z,77.93
2023-03-07T08:22:28.742Z,78.17
2023-03-07T08:24:40.486Z,78.33
2023-03-07T08:26:43.625Z,77.56
2023-03-07T08:28:46.979Z,78.26
2023-03-07T08:30:49.709Z,77.83
2023-03-07T08:32:54.878Z,77.69
2023-03-07T08:34:57.544Z,77.94
2023-03-07T08:37:00.170Z,77.10
2023-03-07T08:39:02.779Z,77.69
2023-03-07T08:41:07.500Z,77.64
2023-03-07T08:43:10.133Z,77.48
2023-03-07T08:45:15.811Z,75.55
2023-03-07T08:47:18.469Z,75.99
2023-03-07T08:49:21.052Z,75.48
2023-03-07T08:51:24.246Z,75.28
2023-03-07T08:53:26.815Z,75.80
2023-03-07T08:55:29.493Z,75.30
2023-03-07T08:57:32.118Z,74.97
2023-03-07T08:59:34.715Z,75.01
2023-03-07T09:01:39.642Z,75.78
2023-03-07T09:03:44.114Z,73.17
2023-03-07T09:05:47.012Z,74.22
2023-03-07T09:07:49.585Z,74.35
2023-03-07T09:09:52.208Z,74.82
2023-03-07T09:11:54.901Z,74.59
2023-03-07T09:13:57.582Z,75.23
2023-03-07T09:16:00.454Z,73.76
2023-03-07T09:18:03.159Z,74.26
2023-03-07T09:20:07.331Z,74.05
2023-03-07T09:22:10.335Z,73.18
2023-03-07T09:24:12.890Z,73.05
2023-03-07T09:26:16.202Z,73.93
2023-03-07T09:28:18.894Z,73.50
2023-03-07T09:30:22.908Z,73.27
2023-03-07T09:32:25.748Z,74.01
2023-03-07T09:34:28.544Z,74.45
2023-03-07T09:36:31.318Z,73.66
2023-03-07T09:38:34.356Z,73.29
2023-03-07T09:40:38.245Z,72.57
2023-03-07T09:43:11.836Z,71.54
2023-03-07T09:45:38.736Z,70.50
2023-03-07T09:48:23.332Z,70.31
2023-03-07T09:50:34.895Z,71.92
2023-03-07T09:52:41.432Z,70.27
2023-03-07T09:54:56.390Z,71.84
2023-03-07T09:57:00.793Z,70.08
2023-03-07T09:59:20.512Z,70.08
2023-03-07T10:01:29.252Z,69.78
2023-03-07T10:03:37.884Z,67.97
2023-03-07T10:05:44.702Z,69.09
2023-03-07T10:07:47.489Z,68.70
2023-03-07T10:09:54.691Z,67.02
2023-03-07T10:12:20.515Z,63.85
2023-03-07T10:14:32.494Z,64.63
2023-03-07T10:16:37.754Z,63.77
2023-03-07T10:18:58.445Z,62.97
2023-03-07T10:21:36.346Z,64.14
2023-03-07T10:24:19.902Z,63.24
2023-03-07T10:26:45.796Z,64.91
2023-03-07T10:28:49.209Z,66.29
2023-03-07T10:30:56.979Z,66.74
2023-03-07T10:33:01.393Z,66.88
2023-03-07T10:35:24.527Z,67.49
2023-03-07T10:37:56.160Z,66.33
2023-03-07T10:40:03.881Z,69.39
2023-03-07T10:42:13.842Z,68.12
2023-03-07T10:44:20.876Z,68.79
2023-03-07T10:46:28.074Z,70.39
2023-03-07T10:48:31.902Z,71.07
2023-03-07T10:50:42.717Z,71.43
2023-03-07T10:52:53.985Z,70.72
2023-03-07T10:55:35.395Z,69.29
2023-03-07T10:57:38.096Z,71.69
2023-03-07T10:59:48.748Z,70.16
2023-03-07T11:01:59.392Z,70.98
2023-03-07T11:04:05.608Z,71.76
2023-03-07T11:06:31.109Z,71.09
2023-03-07T11:08:36.297Z,71.88
2023-03-07T11:10:41.812Z,72.75
2023-03-07T11:12:46.533Z,73.04
2023-03-07T11:14:51.944Z,72.72
2023-03-07T11:17:00.764Z,72.71
2023-03-07T11:19:04.628Z,72.16
2023-03-07T11:21:23.864Z,70.10
2023-03-07T11:23:33.383Z,68.34
2023-03-07T11:25:36.617Z,70.94
2023-03-07T11:27:51.565Z,69.61
2023-03-07T11:30:20.715Z,70.21
2023-03-07T11:32:24.864Z,69.99
2023-03-07T11:35:07.536Z,66.44
2023-03-07T11:37:16.035Z,63.14
2023-03-07T11:39:30.553Z,66.59
2023-03-07T11:42:09.966Z,64.57
2023-03-07T11:45:04.912Z,64.50
2023-03-07T11:47:17.179Z,66.71
2023-03-07T11:49:56.969Z,62.55
2023-03-07T11:52:17.623Z,65.29
2023-03-07T11:54:58.793Z,60.52
2023-03-07T11:57:17.306Z,64.40
2023-03-07T11:59:38.082Z,66.07
2023-03-07T12:01:55.688Z,63.73
2023-03-07T12:04:16.946Z,63.57
2023-03-07T12:06:58.962Z,64.23
2023-03-07T12:09:30.145Z,62.59
2023-03-07T12:11:46.943Z,62.19
2023-03-07T12:14:22.063Z,61.65
2023-03-07T12:16:27.616Z,65.03
2023-03-07T12:18:40.387Z,64.50
2023-03-07T12:20:45.922Z,64.63
2023-03-07T12:23:23.827Z,59.85
2023-03-07T12:25:49.889Z,60.24
2023-03-07T12:28:10.925Z,65.08
2023-03-07T12:30:33.431Z,62.86
2023-03-07T12:32:38.121Z,64.48
2023-03-07T12:34:50.572Z,64.66
2023-03-07T12:37:13.384Z,62.62
2023-03-07T12:39:28.644Z,65.34
2023-03-07T12:41:34.183Z,65.42
2023-03-07T12:43:44.657Z,63.85
2023-03-07T12:46:03.728Z,61.94
2023-03-07T12:48:33.009Z,62.01
2023-03-07T12:50:41.597Z,62.66
2023-03-07T12:53:00.478Z,62.71
2023-03-07T12:55:21.229Z,61.79
2023-03-07T12:57:32.436Z,62.68
2023-03-07T12:59:40.112Z,63.85
2023-03-07T13:02:00.580Z,62.40
2023-03-07T13:04:16.801Z,62.33
2023-03-07T13:06:22.273Z,63.69
2023-03-07T13:08:25.515Z,62.85
2023-03-07T13:10:28.550Z,61.92
2023-03-07T13:12:32.698Z,61.11
2023-03-07T13:14:42.289Z,58.55
2023-03-07T13:16:47.321Z,61.60
2023-03-07T13:18:50.031Z,62.23
2023-03-07T13:21:14.311Z,59.99
2023-03-07T13:23:27.260Z,59.50
2023-03-07T13:25:44.879Z,60.63
2023-03-07T13:27:51.829Z,60.45
2023-03-07T13:30:12.853Z,57.28
2023-03-07T13:32:52.160Z,55.90
2023-03-07T13:34:54.815Z,60.29
2023-03-07T13:36:57.427Z,60.78
2023-03-07T13:39:00.103Z,60.36
2023-03-07T13:41:06.925Z,59.22
2023-03-07T13:43:27.256Z,57.69
2023-03-07T13:45:39.453Z,55.48
2023-03-07T13:47:45.612Z,58.19
2023-03-07T13:49:48.300Z,58.26
2023-03-07T13:52:36.448Z,53.91
2023-03-07T13:54:43.002Z,58.98
2023-03-07T13:56:46.199Z,59.41
2023-03-07T13:59:02.502Z,55.51
2023-03-07T14:01:27.039Z,55.43
2023-03-07T14:03:45.150Z,57.10
2023-03-07T14:05:48.020Z,60.68
2023-03-07T14:07:51.947Z,62.33
2023-03-07T14:10:09.812Z,61.72
2023-03-07T14:12:38.777Z,63.45
2023-03-07T14:14:56.435Z,61.57
2023-03-07T14:17:04.757Z,64.03
2023-03-07T14:19:19.782Z,64.08
2023-03-07T14:21:46.669Z,61.36
2023-03-07T14:24:23.534Z,62.61
2023-03-07T14:26:43.340Z,62.99
2023-03-07T14:28:59.348Z,63.53
2023-03-07T14:31:05.761Z,66.32
2023-03-07T14:33:17.971Z,65.94
2023-03-07T14:35:40.889Z,65.38
2023-03-07T14:37:44.436Z,67.73
2023-03-07T14:39:53.171Z,67.85
2023-03-07T14:42:16.558Z,66.70
2023-03-07T14:44:31.270Z,68.96
2023-03-07T14:46:45.841Z,69.31
2023-03-07T14:49:31.664Z,67.64
2023-03-07T14:51:39.685Z,70.48
2023-03-07T14:53:43.361Z,70.54
2023-03-07T14:55:49.139Z,70.83
2023-03-07T14:57:54.899Z,71.09
2023-03-07T15:00:25.543Z,68.79
2023-03-07T15:02:28.198Z,71.24
2023-03-07T15:04:33.394Z,71.09
2023-03-07T15:06:44.311Z,71.40
2023-03-07T15:08:49.420Z,71.48
2023-03-07T15:11:15.846Z,69.95
2023-03-07T15:13:30.452Z,72.03
2023-03-07T15:15:40.070Z,71.88
2023-03-07T15:17:44.278Z,71.77
2023-03-07T15:20:03.185Z,71.44
2023-03-07T15:22:22.749Z,71.29
2023-03-07T15:24:43.664Z,71.20
2023-03-07T15:26:55.667Z,71.82
2023-03-07T15:29:09.048Z,72.61
2023-03-07T15:31:14.015Z,72.82
2023-03-07T15:33:19.627Z,73.07
2023-03-07T15:35:22.353Z,72.94
2023-03-07T15:37:28.298Z,72.92
2023-03-07T15:39:37.061Z,73.22
2023-03-07T15:41:39.709Z,73.47
2023-03-07T15:43:42.335Z,73.44
2023-03-07T15:45:59.905Z,73.93
2023-03-07T15:48:28.692Z,70.78
2023-03-07T15:50:31.450Z,73.29
2023-03-07T15:52:39.764Z,73.35
2023-03-07T15:54:43.443Z,72.80
2023-03-07T15:56:46.425Z,73.34
2023-03-07T15:58:50.060Z,73.51
2023-03-07T16:01:05.623Z,73.62
2023-03-07T16:03:14.323Z,74.21
2023-03-07T16:05:19.654Z,73.44
2023-03-07T16:07:22.647Z,73.31
2023-03-07T16:09:25.288Z,73.35
2023-03-07T16:11:28.127Z,73.46
2023-03-07T16:13:37.397Z,73.63
2023-03-07T16:15:40.046Z,73.75
2023-03-07T16:17:43.123Z,74.17
2023-03-07T16:19:46.148Z,73.92
2023-03-07T16:21:48.988Z,73.76
2023-03-07T16:23:51.711Z,74.22
2023-03-07T16:25:54.510Z,74.10
2023-03-07T16:27:59.113Z,74.01
2023-03-07T16:30:01.834Z,74.13
2023-03-07T16:32:06.477Z,73.88
2023-03-07T16:34:27.226Z,74.23
2023-03-07T16:36:29.966Z,74.72
2023-03-07T16:38:32.664Z,74.58
2023-03-07T16:40:35.465Z,74.33
2023-03-07T16:42:38.531Z,74.34
2023-03-07T16:44:41.313Z,74.70
2023-03-07T16:46:44.981Z,74.44
2023-03-07T16:48:47.929Z,74.76
2023-03-07T16:50:50.705Z,74.78
2023-03-07T16:52:53.555Z,75.05
2023-03-07T16:54:56.333Z,74.80
2023-03-07T16:56:58.966Z,74.69
2023-03-07T16:59:02.241Z,74.82
2023-03-07T17:01:05.275Z,74.58
2023-03-07T17:03:10.235Z,74.97
2023-03-07T17:05:21.006Z,74.07
2023-03-07T17:07:24.236Z,74.99
2023-03-07T17:09:26.992Z,75.01
2023-03-07T17:11:29.604Z,74.75
2023-03-07T17:13:32.794Z,74.50
2023-03-07T17:15:36.770Z,74.76
2023-03-07T17:17:39.419Z,75.17
2023-03-07T17:19:42.118Z,74.84
2023-03-07T17:21:44.677Z,74.83
2023-03-07T17:23:49.324Z,74.93
2023-03-07T17:25:52.032Z,74.86
2023-03-07T17:28:04.208Z,74.74
2023-03-07T17:30:07.475Z,74.88
2023-03-07T17:32:10.710Z,75.43
2023-03-07T17:34:26.329Z,74.86
2023-03-07T17:36:28.968Z,75.45
2023-03-07T17:38:31.761Z,74.89
2023-03-07T17:40:34.566Z,75.39
2023-03-07T17:42:38.597Z,74.79
2023-03-07T17:44:41.772Z,75.51
2023-03-07T17:46:44.574Z,75.17
2023-03-07T17:48:47.345Z,75.72
2023-03-07T17:50:50.020Z,75.80
2023-03-07T17:52:54.705Z,75.50
2023-03-07T17:54:57.469Z,75.49
2023-03-07T17:57:01.121Z,75.39
2023-03-07T17:59:05.304Z,75.22
2023-03-07T18:01:09.473Z,75.31
2023-03-07T18:03:12.170Z,75.38
2023-03-07T18:05:14.789Z,75.26
2023-03-07T18:07:18.587Z,75.63
2023-03-07T18:09:23.161Z,75.63
2023-03-07T18:11:25.725Z,75.31
2023-03-07T18:13:28.347Z,75.28
2023-03-07T18:15:31.091Z,75.74
2023-03-07T18:17:47.001Z,75.51
2023-03-07T18:19:50.322Z,75.60
2023-03-07T18:21:53.320Z,75.68
2023-03-07T18:23:55.906Z,75.50
2023-03-07T18:26:00.375Z,75.20
2023-03-07T18:28:04.511Z,75.33
2023-03-07T18:30:07.676Z,75.94
2023-03-07T18:32:10.445Z,75.62
2023-03-07T18:34:13.182Z,75.83
2023-03-07T18:36:16.817Z,75.73
2023-03-07T18:38:19.353Z,75.06
2023-03-07T18:40:24.889Z,75.38
2023-03-07T18:42:27.609Z,75.30
2023-03-07T18:44:30.083Z,75.32
2023-03-07T18:46:33.080Z,75.45
2023-03-07T18:48:35.727Z,75.81
2023-03-07T18:50:38.372Z,75.75
2023-03-07T18:52:40.994Z,75.56
2023-03-07T18:54:43.475Z,75.32
2023-03-07T18:56:47.483Z,75.63
2023-03-07T18:58:54.388Z,75.58
2023-03-07T19:00:57.162Z,75.80
2023-03-07T19:02:59.682Z,75.58
2023-03-07T19:05:02.243Z,75.72
2023-03-07T19:07:07.676Z,76.17
2023-03-07T19:09:15.980Z,75.53
2023-03-07T19:11:19.502Z,76.08
2023-03-07T19:13:22.374Z,75.66
2023-03-07T19:15:24.912Z,75.72
2023-03-07T19:17:27.564Z,75.98
2023-03-07T19:19:30.285Z,76.01
2023-03-07T19:21:33.122Z,75.72
2023-03-07T19:23:35.874Z,75.80
2023-03-07T19:25:38.506Z,76.01
2023-03-07T19:27:41.161Z,75.33
2023-03-07T19:29:43.758Z,76.22
2023-03-07T19:31:47.607Z,75.91
2023-03-07T19:33:51.603Z,75.32
2023-03-07T19:36:14.443Z,75.61
2023-03-07T19:38:17.007Z,75.47
2023-03-07T19:40:19.625Z,75.48
2023-03-07T19:42:22.102Z,75.74
2023-03-07T19:44:25.183Z,75.41
2023-03-07T19:46:27.982Z,75.53
2023-03-07T19:48:30.612Z,75.46
2023-03-07T19:50:33.072Z,75.24
2023-03-07T19:52:35.637Z,75.33
2023-03-07T19:54:38.409Z,75.16
2023-03-07T19:56:42.747Z,75.46
2023-03-07T19:58:45.812Z,74.98
2023-03-07T20:00:48.582Z,74.88
2023-03-07T20:02:51.087Z,75.30
2023-03-07T20:04:55.584Z,75.24
2023-03-07T20:06:58.192Z,75.08
2023-03-07T20:09:01.583Z,74.90
2023-03-07T20:11:27.020Z,75.09
2023-03-07T20:13:29.860Z,74.72
2023-03-07T20:15:33.205Z,75.05
2023-03-07T20:17:36.707Z,75.31
2023-03-07T20:19:39.282Z,75.27
2023-03-07T20:21:44.284Z,75.19
2023-03-07T20:23:48.453Z,75.38
2023-03-07T20:25:50.919Z,75.67
2023-03-07T20:27:53.456Z,75.92
2023-03-07T20:29:56.701Z,75.45
2023-03-07T20:31:59.609Z,75.75
2023-03-07T20:34:02.764Z,75.56
2023-03-07T20:36:08.700Z,75.64
2023-03-07T20:38:11.500Z,76.23
2023-03-07T20:40:13.943Z,75.63
2023-03-07T20:42:16.778Z,76.27
2023-03-07T20:44:19.281Z,76.04
2023-03-07T20:46:22.311Z,76.30
2023-03-07T20:48:24.810Z,76.28
2023-03-07T20:50:27.232Z,76.57
2023-03-07T20:52:29.809Z,76.50
2023-03-07T20:54:32.336Z,76.52
2023-03-07T20:56:36.971Z,77.22
2023-03-07T20:58:39.772Z,76.96
2023-03-07T21:00:42.211Z,77.03
2023-03-07T21:02:48.025Z,77.12
2023-03-07T21:04:50.860Z,77.36
2023-03-07T21:06:53.295Z,77.00
2023-03-07T21:08:58.253Z,76.63
2023-03-07T21:11:08.219Z,76.57
2023-03-07T21:13:13.183Z,76.71
2023-03-07T21:15:15.670Z,76.82
2023-03-07T21:17:18.117Z,76.91
2023-03-07T21:19:23.598Z,76.32
2023-03-07T21:21:26.065Z,76.37
2023-03-07T21:23:29.046Z,75.56
2023-03-07T21:25:31.519Z,76.05
2023-03-07T21:27:33.952Z,76.37
2023-03-07T21:29:36.489Z,76.22
2023-03-07T21:31:39.127Z,76.36
2023-03-07T21:33:43.899Z,76.02
2023-03-07T21:35:46.389Z,75.91
2023-03-07T21:37:49.047Z,76.29
2023-03-07T21:39:51.588Z,75.96
2023-03-07T21:41:54.031Z,76.01
2023-03-07T21:43:57.663Z,75.82
2023-03-07T21:46:05.022Z,75.18
2023-03-07T21:48:07.968Z,75.86
2023-03-07T21:50:11.023Z,75.60
2023-03-07T21:52:13.484Z,75.34
2023-03-07T21:54:16.018Z,74.78
2023-03-07T21:56:18.596Z,74.02
2023-03-07T21:58:22.191Z,73.73
2023-03-07T22:00:24.902Z,74.03
2023-03-07T22:02:27.403Z,74.20
2023-03-07T22:04:30.446Z,74.53
2023-03-07T22:06:32.936Z,74.39
2023-03-07T22:08:36.239Z,74.14
2023-03-07T22:10:38.766Z,74.13
2023-03-07T22:12:41.325Z,73.93
2023-03-07T22:14:43.837Z,74.12
2023-03-07T22:16:46.346Z,74.56
2023-03-07T22:18:53.554Z,74.31
2023-03-07T22:20:56.116Z,74.65
2023-03-07T22:22:58.564Z,74.00
2023-03-07T22:25:01.054Z,74.12
2023-03-07T22:27:03.675Z,73.85
2023-03-07T22:29:06.184Z,73.84
2023-03-07T22:31:12.067Z,73.50
2023-03-07T22:33:14.580Z,73.78
2023-03-07T22:35:17.072Z,74.33
2023-03-07T22:37:19.618Z,74.20
2023-03-07T22:39:22.384Z,73.50
2023-03-07T22:41:25.775Z,73.86
2023-03-07T22:43:30.588Z,73.73
2023-03-07T22:45:33.484Z,73.48
2023-03-07T22:47:35.972Z,73.34
2023-03-07T22:49:38.492Z,73.55
2023-03-07T22:51:40.878Z,73.73
2023-03-07T22:53:43.795Z,73.22
2023-03-07T22:55:46.351Z,73.14
2023-03-07T22:57:48.822Z,72.75
2023-03-07T22:59:51.383Z,72.96
2023-03-07T23:01:53.792Z,72.57
2023-03-07T23:03:57.760Z,72.79
2023-03-07T23:06:00.469Z,73.13
2023-03-07T23:08:03.858Z,72.58
2023-03-07T23:10:06.856Z,72.72
2023-03-07T23:12:09.395Z,72.08
2023-03-07T23:14:11.973Z,72.25
2023-03-07T23:16:19.721Z,72.60
2023-03-07T23:18:22.215Z,72.72
2023-03-07T23:20:29.189Z,71.78
2023-03-07T23:22:31.583Z,72.35
2023-03-07T23:24:33.969Z,71.59
2023-03-07T23:26:38.247Z,71.55
2023-03-07T23:28:40.659Z,71.35
2023-03-07T23:30:43.177Z,71.77
2023-03-07T23:32:45.880Z,70.62
2023-03-07T23:34:48.312Z,70.63
2023-03-07T23:36:50.846Z,71.04
2023-03-07T23:38:53.730Z,71.05
2023-03-07T23:40:59.236Z,70.44
2023-03-07T23:43:01.649Z,70.89
2023-03-07T23:45:04.397Z,70.84
2023-03-07T23:47:06.965Z,70.64
2023-03-07T23:49:10.888Z,70.81
2023-03-07T23:51:14.045Z,71.28
2023-03-07T23:53:16.707Z,70.69
2023-03-07T23:55:19.301Z,71.18
2023-03-07T23:57:21.802Z,70.83
2023-03-07T23:59:24.238Z,70.74
